Wetterdaten: Samstag, 20.12.2014
Datum Zeit Temp. A. Feuchte A. Luftdruck Regen Wind Richtung Richtung Sonnenschein ET UV Solar Taupunkt Windchill Windben Empfang
20.12.2014 00:00 8,8 C 74 % 1018,1 hPa 0,0 l/m 9,0 km/h (2 Bft) SW 230 0 min 0,000 mm 0,0 UV-I 0 W/m 4,4 C 6,9 C 11,9 km/h (2 Bft) 0,00 %
20.12.2014 01:00 7,2 C 79 % 1019,1 hPa 2,7 l/m 5,8 km/h (2 Bft) S-SW 200 0 min 0,000 mm 0,0 UV-I 0 W/m 3,8 C 7,2 C 11,9 km/h (2 Bft) 0,00 %
20.12.2014 02:00 7,0 C 81 % 1019,1 hPa 2,1 l/m 0,0 km/h (0 Bft) S 180 0 min 0,000 mm 0,0 UV-I 0 W/m 4,0 C 7,0 C 0,0 km/h (0 Bft) 0,00 %
20.12.2014 03:00 7,1 C 80 % 1019,1 hPa 0,3 l/m 0,3 km/h (0 Bft) N 359 0 min 0,000 mm 0,0 UV-I 0 W/m 3,9 C 7,1 C 4,0 km/h (1 Bft) 0,00 %
20.12.2014 04:00 7,2 C 80 % 1020,2 hPa 0,0 l/m 1,8 km/h (1 Bft) N-NW 330 0 min 0,000 mm 0,0 UV-I 0 W/m 4,0 C 7,2 C 4,0 km/h (1 Bft) 0,00 %
20.12.2014 05:00 5,6 C 81 % 1021,9 hPa 0,3 l/m 0,3 km/h (0 Bft) W-SW 245 0 min 0,000 mm 0,0 UV-I 0 W/m 2,6 C 5,6 C 4,0 km/h (1 Bft) 0,00 %
20.12.2014 06:00 4,9 C 78 % 1023,0 hPa 0,0 l/m 4,7 km/h (1 Bft) SW 230 0 min 0,000 mm 0,0 UV-I 0 W/m 1,4 C 4,9 C 7,9 km/h (2 Bft) 0,00 %
20.12.2014 07:00 4,5 C 75 % 1023,5 hPa 0,0 l/m 0,0 km/h (0 Bft) W-SW 240 0 min 0,000 mm 0,0 UV-I 0 W/m 0,5 C 4,5 C 0,0 km/h (0 Bft) 0,00 %
20.12.2014 08:00 4,7 C 78 % 1023,8 hPa 0,0 l/m 0,0 km/h (0 Bft) SW 230 0 min 0,000 mm 0,0 UV-I 1 W/m 1,2 C 4,7 C 0,0 km/h (0 Bft) 0,00 %
20.12.2014 09:00 5,2 C 74 % 1023,7 hPa 0,0 l/m 0,0 km/h (0 Bft) SW 230 0 min 0,000 mm 0,0 UV-I 6 W/m 1,0 C 5,2 C 0,0 km/h (0 Bft) 0,00 %
20.12.2014 10:00 5,5 C 73 % 1023,7 hPa 0,0 l/m 0,0 km/h (0 Bft) SW 230 0 min 0,000 mm 0,0 UV-I 31 W/m 1,1 C 5,5 C 0,0 km/h (0 Bft) 0,00 %
20.12.2014 11:00 6,0 C 74 % 1022,5 hPa 0,0 l/m 2,9 km/h (1 Bft) S-SW 200 0 min 0,000 mm 1,0 UV-I 104 W/m 1,7 C 6,0 C 4,0 km/h (1 Bft) 0,00 %
20.12.2014 12:00 7,7 C 64 % 1021,5 hPa 0,0 l/m 5,8 km/h (2 Bft) S-SW 210 0 min 0,000 mm 1,0 UV-I 96 W/m 1,3 C 7,7 C 11,9 km/h (2 Bft) 0,00 %
20.12.2014 13:00 7,0 C 64 % 1020,3 hPa 0,0 l/m 0,6 km/h (0 Bft) NW 320 0 min 0,000 mm 1,0 UV-I 75 W/m 0,7 C 7,0 C 4,0 km/h (1 Bft) 0,00 %
20.12.2014 14:00 7,4 C 65 % 1019,5 hPa 0,0 l/m 0,6 km/h (0 Bft) SW 230 0 min 0,000 mm 1,0 UV-I 56 W/m 1,3 C 7,4 C 4,0 km/h (1 Bft) 0,00 %
20.12.2014 15:00 7,1 C 66 % 1019,5 hPa 0,0 l/m 0,3 km/h (0 Bft) SW 230 0 min 0,000 mm 0,0 UV-I 18 W/m 1,2 C 7,1 C 4,0 km/h (1 Bft) 0,00 %
20.12.2014 16:00 6,3 C 65 % 1019,7 hPa 0,0 l/m 7,2 km/h (2 Bft) W-NW 300 0 min 0,000 mm 0,0 UV-I 0 W/m 0,2 C 5,6 C 11,9 km/h (2 Bft) 0,00 %
20.12.2014 17:00 5,3 C 62 % 1019,8 hPa 0,0 l/m 0,6 km/h (0 Bft) S-SW 210 0 min 0,000 mm 0,0 UV-I 0 W/m -1,4 C 5,3 C 4,0 km/h (1 Bft) 0,00 %
20.12.2014 18:00 5,4 C 59 % 1019,4 hPa 0,0 l/m 6,9 km/h (2 Bft) S-SW 210 0 min 0,000 mm 0,0 UV-I 0 W/m -2,0 C 5,0 C 11,9 km/h (2 Bft) 0,00 %
20.12.2014 19:00 5,2 C 62 % 1019,8 hPa 0,0 l/m 1,4 km/h (1 Bft) NW 310 0 min 0,000 mm 0,0 UV-I 0 W/m -1,5 C 5,2 C 4,0 km/h (1 Bft) 0,00 %
20.12.2014 20:00 5,4 C 61 % 1020,1 hPa 0,0 l/m 14,3 km/h (3 Bft) S-SW 200 0 min 0,000 mm 0,0 UV-I 0 W/m -1,5 C -0,1 C 24,1 km/h (4 Bft) 0,00 %
20.12.2014 21:00 5,5 C 59 % 1020,5 hPa 0,0 l/m 4,7 km/h (1 Bft) SW 220 0 min 0,000 mm 0,0 UV-I 0 W/m -1,9 C 5,5 C 7,9 km/h (2 Bft) 0,00 %
20.12.2014 22:00 3,8 C 73 % 1021,9 hPa 0,3 l/m 4,7 km/h (1 Bft) W-SW 240 0 min 0,000 mm 0,0 UV-I 0 W/m -0,6 C 3,8 C 7,9 km/h (2 Bft) 0,00 %
20.12.2014 23:00 4,3 C 69 % 1022,1 hPa 0,0 l/m 19,1 km/h (3 Bft) W 270 0 min 0,000 mm 0,0 UV-I 0 W/m -0,9 C -3,7 C 39,9 km/h (6 Bft) 0,00 %
_ Min-Zeit 22:00 18:00 00:00 - 02:00 - - - - - - 18:00 23:00 02:00 00:00
Minimum _ 3,8 C 59 % 1018,1 hPa - 0,0 km/h (0 Bft) - - - - - - -2,0 C -3,7 C 0,0 km/h (0 Bft) 0,00 %
_ Max-Zeit 00:00 02:00 08:00 01:00 23:00 - - 00:00 00:00 11:00 11:00 00:00 12:00 23:00 00:00
Maximum _ 8,8 C 81 % 1023,8 hPa 2,7 l/m 19,1 km/h
W (3 Bft)
- - 0 min 0,000 mm 1,0 UV-I 104 W/m 4,4 C 7,7 C 39,9 km/h
W (6 Bft)
0,00 %
Durchschnitt _ 5,9 C 71 % 1021,0 hPa #5,7 l/m 3,6 km/h (1 Bft) S-SW - #0 min. #0,000 mm 1,0 UV-I 48 W/m 0,9 C 5,2 C 7,5 km/h (2 Bft) 0,00 %